aviador You're here:

K1P1 Decoded Metar

PLYMOUTH in NH, USA
Report Time2018-01-19 18:55:00
UTC Time2018-01-19 19:05:32
Flight Rules mvfr MVFR
Wind280° at 05 kt
W.Rank280° ranks 1
Current wind is below 280° avg. (7.2)
Visibility9999 m
Phenomena:N/A
Clouds:Overcast 023 Hf
Expected CloudBase > 1,600 ft AGL from Temp-Dew spread
Ceiling2,300 ft
Temp-2°C (ISA -16)
Dew Point-6°C (74% RH)
AAT-6.5°C
QNH1012 hPa
Density Alt-1,368 ft
Elevation505 ft
Report Wrong Elevation
Raw Report
METAR K1P1 191855Z AUTO 28005KT 10SM OVC023 M02/M06 A2989 RMK AO2 T10181062=

Extra information for K1P1:More info

Metar Taf Metar & Taf Last 4 Metars F.Rules Stats Wind Profile Meteogram Temp Stats Airport Information Weather charts Add Link Nearby VenuesMetar ALERT Operation Metar Decoded Social comments

AIRNAV info for K1P1